Time;durP1;ratioP1;P1;durP2;ratioP2;P2;SDS_P1;SDS_P2;PMS_P1;PMS_P2;Temp;Humidity;BMP_temperature;BMP_pressure;BME280_temperature;BME280_humidity;BME280_pressure;Samples;Min_cycle;Max_cycle;Signal;HPM_P1;HPM_P2
2022/08/22 00:01:22;;;;;;;0.50;0.50;;;17.30;96.80;;;;;;5093905;28;20475;-82
2022/08/22 00:03:58;;;;;;;4.03;1.20;;;17.30;96.70;;;;;;5093833;28;20467;-82
2022/08/22 00:06:36;;;;;;;2.20;0.53;;;17.30;97.00;;;;;;5093857;28;20447;-82
2022/08/22 00:09:18;;;;;;;0.80;0.80;;;17.20;97.10;;;;;;5093566;28;20507;-81
2022/08/22 00:11:52;;;;;;;0.50;0.50;;;17.20;97.40;;;;;;5093758;28;20537;-82
2022/08/22 00:14:24;;;;;;;1.13;0.67;;;17.20;97.60;;;;;;5093755;28;20427;-81
2022/08/22 00:17:00;;;;;;;1.13;0.60;;;17.20;98.00;;;;;;5093734;28;20435;-81
2022/08/22 00:19:40;;;;;;;1.13;0.80;;;17.20;98.20;;;;;;5094336;28;20438;-82
2022/08/22 00:22:17;;;;;;;0.63;0.60;;;17.10;98.20;;;;;;5093592;28;20477;-82
2022/08/22 00:24:50;;;;;;;1.80;0.93;;;17.10;98.40;;;;;;5093307;28;20467;-81
2022/08/22 00:27:22;;;;;;;1.60;1.10;;;17.10;98.50;;;;;;5093612;28;20433;-81
2022/08/22 00:29:54;;;;;;;1.03;0.63;;;17.10;98.90;;;;;;5093530;28;20432;-82
2022/08/22 00:32:30;;;;;;;1.63;1.00;;;17.20;98.80;;;;;;5093155;28;20836;-82
2022/08/22 00:35:00;;;;;;;1.20;0.73;;;17.20;98.90;;;;;;5093207;28;20420;-82
2022/08/22 00:37:34;;;;;;;0.77;0.77;;;17.30;99.30;;;;;;5093473;28;20447;-82
2022/08/22 00:40:14;;;;;;;1.97;0.80;;;17.30;99.10;;;;;;5093487;28;20424;-82
2022/08/22 00:42:57;;;;;;;1.23;0.70;;;17.30;98.80;;;;;;5093284;28;20467;-81
2022/08/22 00:45:49;;;;;;;1.07;0.53;;;17.30;98.70;;;;;;5093410;28;20432;-82
2022/08/22 00:49:01;;;;;;;0.50;0.50;;;17.20;98.50;;;;;;5093141;28;20408;-82
2022/08/22 00:51:54;;;;;;;0.67;0.60;;;17.10;98.70;;;;;;5064795;28;20467;-81
2022/08/22 00:54:36;;;;;;;0.60;0.60;;;17.10;98.70;;;;;;5093037;28;20428;-82
2022/08/22 00:57:43;;;;;;;0.90;0.50;;;17.00;99.00;;;;;;5093295;28;20431;-81
2022/08/22 01:00:15;;;;;;;0.40;0.40;;;17.00;98.50;;;;;;5093249;28;20839;-82
2022/08/22 01:03:00;;;;;;;1.07;0.60;;;17.00;98.60;;;;;;5095224;28;20459;-81
2022/08/22 01:05:51;;;;;;;2.00;0.80;;;16.90;98.20;;;;;;5097300;28;20432;-82
2022/08/22 01:08:41;;;;;;;0.87;0.60;;;17.00;98.40;;;;;;5097261;28;20412;-82
2022/08/22 01:11:26;;;;;;;0.90;0.80;;;17.00;98.20;;;;;;5097122;28;20459;-82
2022/08/22 01:14:07;;;;;;;0.70;0.60;;;17.00;98.40;;;;;;5097162;28;20427;-81
2022/08/22 01:17:04;;;;;;;0.70;0.60;;;17.00;98.20;;;;;;5096802;28;20977;-81
2022/08/22 01:20:17;;;;;;;1.20;0.50;;;17.00;98.00;;;;;;5086585;28;20458;-82
2022/08/22 01:23:33;;;;;;;0.80;0.50;;;16.90;98.20;;;;;;5096452;28;20468;-82
2022/08/22 01:26:54;;;;;;;1.10;0.70;;;16.90;98.30;;;;;;5096623;28;20443;-82
2022/08/22 01:30:07;;;;;;;0.50;0.50;;;16.80;98.30;;;;;;5096489;28;20799;-81
2022/08/22 01:33:19;;;;;;;1.20;0.63;;;16.80;98.30;;;;;;5096414;28;20817;-81
2022/08/22 01:36:22;;;;;;;0.60;0.60;;;16.80;98.70;;;;;;5096714;28;20801;-81
2022/08/22 01:39:02;;;;;;;0.83;0.80;;;16.80;97.60;;;;;;5096675;28;20648;-82
2022/08/22 01:42:16;;;;;;;0.63;0.63;;;16.90;96.80;;;;;;5096537;28;20522;-81
2022/08/22 01:45:02;;;;;;;0.70;0.70;;;16.90;97.40;;;;;;5096479;28;20555;-82
2022/08/22 01:47:34;;;;;;;0.57;0.57;;;17.00;98.10;;;;;;5096491;28;20435;-81
2022/08/22 01:50:12;;;;;;;1.07;0.57;;;17.00;98.40;;;;;;5096415;28;20424;-82
2022/08/22 01:52:45;;;;;;;1.63;0.80;;;17.00;98.00;;;;;;5096045;28;20657;-81
2022/08/22 01:55:21;;;;;;;0.40;0.40;;;16.90;98.30;;;;;;5096340;28;20503;-81
2022/08/22 01:57:53;;;;;;;0.50;0.50;;;16.90;98.90;;;;;;5096303;28;20432;-82
2022/08/22 02:00:22;;;;;;;1.77;1.03;;;16.80;99.20;;;;;;5096148;28;20458;-82
2022/08/22 02:03:00;;;;;;;1.53;0.50;;;16.70;99.40;;;;;;5095994;28;20499;-82
2022/08/22 02:05:36;;;;;;;0.50;0.50;;;16.70;99.70;;;;;;5096158;28;20432;-82
2022/08/22 02:08:16;;;;;;;0.53;0.53;;;16.60;99.90;;;;;;5095765;28;20964;-81
2022/08/22 02:10:52;;;;;;;0.70;0.50;;;16.60;99.90;;;;;;5095666;28;20524;-82
2022/08/22 02:13:33;;;;;;;0.83;0.70;;;16.60;99.90;;;;;;5096498;28;20424;-82
2022/08/22 02:16:11;;;;;;;0.50;0.40;;;16.50;99.90;;;;;;5095630;28;20934;-82
2022/08/22 02:19:18;;;;;;;0.70;0.70;;;16.50;99.90;;;;;;5095922;28;20436;-82
2022/08/22 02:21:50;;;;;;;1.10;0.70;;;16.40;99.90;;;;;;5095727;28;20490;-82
2022/08/22 02:24:26;;;;;;;2.13;1.10;;;16.40;99.90;;;;;;5094627;28;20498;-82
2022/08/22 02:27:04;;;;;;;1.27;0.90;;;16.40;99.90;;;;;;5095763;28;20787;-82
2022/08/22 02:29:36;;;;;;;6.83;0.70;;;16.40;99.90;;;;;;5095671;28;20435;-81
2022/08/22 02:32:17;;;;;;;1.63;0.70;;;16.40;99.90;;;;;;5095547;28;20475;-81
2022/08/22 02:34:52;;;;;;;1.50;0.80;;;16.30;99.90;;;;;;5095606;28;20450;-82
2022/08/22 02:37:29;;;;;;;0.60;0.50;;;16.30;99.90;;;;;;5095568;28;20432;-81
2022/08/22 02:40:10;;;;;;;0.83;0.83;;;16.20;99.90;;;;;;5095491;28;20434;-82
2022/08/22 02:42:43;;;;;;;1.67;0.83;;;16.10;99.90;;;;;;5095362;28;20471;-81
2022/08/22 02:45:21;;;;;;;0.80;0.80;;;16.10;99.90;;;;;;5095303;28;20479;-82
2022/08/22 02:47:53;;;;;;;13.70;0.90;;;16.10;99.90;;;;;;5095071;28;20459;-82
2022/08/22 02:50:28;;;;;;;0.70;0.70;;;16.10;99.90;;;;;;5095266;28;20472;-82
2022/08/22 02:53:00;;;;;;;0.80;0.80;;;16.10;99.90;;;;;;5095154;28;20471;-81
2022/08/22 02:55:38;;;;;;;1.20;0.70;;;16.10;99.90;;;;;;5095126;28;20429;-82
2022/08/22 02:58:11;;;;;;;0.70;0.70;;;16.10;99.90;;;;;;5095166;28;20432;-82
2022/08/22 03:00:51;;;;;;;0.70;0.70;;;16.10;99.90;;;;;;5094992;28;20440;-82
2022/08/22 03:03:22;;;;;;;0.90;0.90;;;16.00;99.90;;;;;;5094656;28;20918;-82
2022/08/22 03:05:56;;;;;;;0.70;0.70;;;16.00;99.90;;;;;;5095010;28;20451;-82
2022/08/22 03:08:26;;;;;;;1.93;0.73;;;16.00;99.90;;;;;;5094980;28;20429;-81
2022/08/22 03:11:04;;;;;;;0.83;0.60;;;15.90;99.90;;;;;;5094834;28;20460;-81
2022/08/22 03:13:40;;;;;;;1.37;0.70;;;15.90;99.90;;;;;;5094803;28;20428;-81
2022/08/22 03:16:13;;;;;;;1.30;0.90;;;15.90;99.90;;;;;;5095647;28;20436;-82
2022/08/22 03:18:47;;;;;;;1.77;0.70;;;15.90;99.90;;;;;;5094772;28;20466;-81
2022/08/22 03:21:24;;;;;;;1.30;0.60;;;15.90;99.90;;;;;;5094580;28;20463;-81
2022/08/22 03:23:56;;;;;;;0.83;0.63;;;15.90;99.90;;;;;;5094364;28;20463;-81
2022/08/22 03:26:29;;;;;;;0.60;0.50;;;15.80;99.90;;;;;;5093416;28;20443;-81
2022/08/22 03:29:01;;;;;;;0.70;0.70;;;15.80;99.90;;;;;;5094610;28;20433;-82
2022/08/22 03:31:29;;;;;;;1.00;0.70;;;15.80;99.90;;;;;;5094430;28;20475;-81
2022/08/22 03:34:15;;;;;;;0.50;0.50;;;15.80;99.90;;;;;;5094358;28;20440;-82
2022/08/22 03:36:47;;;;;;;1.23;0.80;;;15.80;99.90;;;;;;5093710;28;20448;-81
2022/08/22 03:39:18;;;;;;;1.67;0.70;;;15.80;99.90;;;;;;5094332;28;20431;-82
2022/08/22 03:42:08;;;;;;;5.30;1.10;;;15.80;99.90;;;;;;5094733;28;20470;-81
2022/08/22 03:45:01;;;;;;;0.50;0.50;;;15.80;99.90;;;;;;5094205;28;20460;-82
2022/08/22 03:48:08;;;;;;;0.70;0.70;;;15.70;99.90;;;;;;5094230;28;20438;-82
2022/08/22 03:51:00;;;;;;;0.70;0.70;;;15.70;99.90;;;;;;5093281;28;20435;-82
2022/08/22 03:53:45;;;;;;;1.33;0.60;;;15.60;99.90;;;;;;5093815;28;20479;-81
2022/08/22 03:56:29;;;;;;;0.80;0.57;;;15.60;99.90;;;;;;5094039;28;20797;-82
2022/08/22 03:59:30;;;;;;;0.87;0.67;;;15.60;99.90;;;;;;5094039;28;20431;-81
2022/08/22 04:02:37;;;;;;;1.00;0.90;;;15.60;99.90;;;;;;5093572;28;20459;-82
2022/08/22 04:05:48;;;;;;;2.70;0.60;;;15.50;99.90;;;;;;5093800;28;20503;-81
2022/08/22 04:08:50;;;;;;;5.30;0.80;;;15.50;99.90;;;;;;5093923;28;20427;-82
2022/08/22 04:11:45;;;;;;;1.07;0.60;;;15.50;99.90;;;;;;5094287;28;20463;-81
2022/08/22 04:14:46;;;;;;;1.43;0.63;;;15.50;99.90;;;;;;5093397;28;20947;-81
2022/08/22 04:17:31;;;;;;;1.03;0.87;;;15.50;99.90;;;;;;5037038;28;20553;-81
2022/08/22 04:20:14;;;;;;;0.83;0.80;;;15.40;99.90;;;;;;5093654;28;20439;-81
2022/08/22 04:23:04;;;;;;;1.10;0.70;;;15.40;99.90;;;;;;5093235;28;20466;-82
2022/08/22 04:25:37;;;;;;;0.30;0.30;;;15.40;99.90;;;;;;5093094;28;20531;-81
2022/08/22 04:28:11;;;;;;;1.00;0.93;;;15.40;99.90;;;;;;5093614;28;20436;-81
2022/08/22 04:30:46;;;;;;;1.90;0.90;;;15.30;99.90;;;;;;5093267;28;20930;-81
2022/08/22 04:33:19;;;;;;;1.47;0.70;;;15.30;99.90;;;;;;5093572;28;20420;-82
2022/08/22 04:35:55;;;;;;;1.50;0.87;;;15.30;99.90;;;;;;5093607;28;20427;-81
2022/08/22 04:38:27;;;;;;;0.60;0.60;;;15.40;99.90;;;;;;5093973;28;20446;-82
2022/08/22 04:40:58;;;;;;;0.80;0.80;;;15.30;99.90;;;;;;5093449;28;20466;-82
2022/08/22 04:43:34;;;;;;;0.57;0.53;;;15.30;99.90;;;;;;5093499;28;20432;-82
2022/08/22 04:46:07;;;;;;;0.60;0.50;;;15.30;99.90;;;;;;5093400;28;20467;-81
2022/08/22 04:48:37;;;;;;;1.80;0.90;;;15.30;99.90;;;;;;5093398;28;20428;-82
2022/08/22 04:51:10;;;;;;;0.50;0.50;;;15.40;99.90;;;;;;5093379;28;20471;-82
2022/08/22 04:54:04;;;;;;;0.50;0.50;;;15.30;99.90;;;;;;5093437;28;20503;-82
2022/08/22 04:56:42;;;;;;;2.73;1.20;;;15.40;99.90;;;;;;5093410;28;20432;-82
2022/08/22 04:59:12;;;;;;;2.80;0.70;;;15.40;99.90;;;;;;5093331;28;20432;-82
2022/08/22 05:01:46;;;;;;;2.40;0.63;;;15.40;99.90;;;;;;5093239;28;20468;-82
2022/08/22 05:04:18;;;;;;;0.83;0.80;;;15.40;99.90;;;;;;5092947;28;20464;-82
2022/08/22 05:06:58;;;;;;;0.73;0.53;;;15.40;99.90;;;;;;5093303;28;20447;-82
2022/08/22 05:09:30;;;;;;;0.93;0.57;;;15.40;99.90;;;;;;5093236;28;20434;-82
2022/08/22 05:12:03;;;;;;;0.87;0.77;;;15.50;99.90;;;;;;5093193;28;20468;-82
2022/08/22 05:14:37;;;;;;;0.60;0.50;;;15.50;99.90;;;;;;5092869;28;20957;-82
2022/08/22 05:17:09;;;;;;;0.70;0.70;;;15.60;99.90;;;;;;5094016;28;20746;-82
2022/08/22 05:19:39;;;;;;;1.60;0.63;;;15.60;99.90;;;;;;5092866;28;20776;-82
2022/08/22 05:22:09;;;;;;;1.27;0.80;;;15.60;99.90;;;;;;5093501;28;20811;-82
2022/08/22 05:24:39;;;;;;;0.50;0.50;;;15.60;99.90;;;;;;5092715;28;20491;-81
2022/08/22 05:27:14;;;;;;;1.17;0.80;;;15.70;99.90;;;;;;5093905;28;20451;-82
2022/08/22 05:29:44;;;;;;;4.63;1.47;;;15.70;99.90;;;;;;5093067;28;20443;-82
2022/08/22 05:32:19;;;;;;;0.90;0.70;;;15.80;99.90;;;;;;5092952;28;20464;-82
2022/08/22 05:34:48;;;;;;;0.80;0.80;;;15.80;99.90;;;;;;5092992;28;20432;-82
2022/08/22 05:37:20;;;;;;;2.33;1.40;;;15.80;99.90;;;;;;5092922;28;20452;-82
2022/08/22 05:39:59;;;;;;;0.60;0.60;;;15.90;99.90;;;;;;5092985;28;20432;-82
2022/08/22 05:42:28;;;;;;;0.53;0.53;;;15.90;99.90;;;;;;5092828;28;20475;-81
2022/08/22 05:44:55;;;;;;;1.77;1.00;;;16.00;99.90;;;;;;5092705;28;20490;-82
2022/08/22 05:47:27;;;;;;;1.03;0.70;;;16.00;99.90;;;;;;5092842;28;20448;-82
2022/08/22 05:50:00;;;;;;;1.70;0.83;;;16.00;99.90;;;;;;5094966;28;20440;-81
2022/08/22 05:52:42;;;;;;;0.70;0.63;;;16.10;99.90;;;;;;5096329;28;20468;-81
2022/08/22 05:55:20;;;;;;;0.90;0.60;;;16.20;99.90;;;;;;5096090;28;20436;-82
2022/08/22 05:57:51;;;;;;;3.67;0.93;;;16.40;99.90;;;;;;5096419;28;20404;-82
2022/08/22 06:00:21;;;;;;;0.97;0.90;;;16.50;99.90;;;;;;5096296;28;20431;-82
2022/08/22 06:02:58;;;;;;;0.60;0.60;;;16.60;99.90;;;;;;5096211;28;20467;-81
2022/08/22 06:05:28;;;;;;;2.13;1.17;;;16.80;99.90;;;;;;5096140;28;20459;-82
2022/08/22 06:08:00;;;;;;;1.10;1.10;;;17.00;99.90;;;;;;5096091;28;20472;-82
2022/08/22 06:10:31;;;;;;;0.93;0.83;;;17.20;99.90;;;;;;5095774;28;20795;-82
2022/08/22 06:13:03;;;;;;;1.73;0.90;;;17.30;99.90;;;;;;5096031;28;20481;-81
2022/08/22 06:15:37;;;;;;;1.03;0.90;;;17.40;99.90;;;;;;5095963;28;20436;-82
2022/08/22 06:18:11;;;;;;;1.73;0.83;;;17.60;99.90;;;;;;5095927;28;20439;-82
2022/08/22 06:20:43;;;;;;;1.93;0.90;;;17.80;99.90;;;;;;5095806;28;20428;-82
2022/08/22 06:23:15;;;;;;;0.90;0.73;;;18.00;99.90;;;;;;5095791;28;20436;-81
2022/08/22 06:25:46;;;;;;;1.40;1.00;;;18.20;99.90;;;;;;5095259;28;20492;-82
2022/08/22 06:28:19;;;;;;;1.47;1.10;;;18.40;99.90;;;;;;5095741;28;20468;-82
2022/08/22 06:30:46;;;;;;;1.30;1.20;;;18.50;99.90;;;;;;5096152;28;20447;-82
2022/08/22 06:33:19;;;;;;;1.77;0.80;;;18.80;99.90;;;;;;5095322;28;20819;-82
2022/08/22 06:38:51;;;;;;;0.83;0.60;;;19.00;99.90;;;;;;5095305;28;20403;-82
2022/08/22 06:41:21;;;;;;;0.70;0.70;;;19.20;99.90;;;;;;5095157;28;20824;-82
2022/08/22 06:43:51;;;;;;;1.30;1.00;;;19.40;99.90;;;;;;5095372;28;20444;-82
2022/08/22 06:46:20;;;;;;;1.80;0.73;;;19.50;99.90;;;;;;5095362;28;20588;-82
2022/08/22 06:48:49;;;;;;;0.73;0.73;;;19.70;99.90;;;;;;5095321;28;20452;-82
2022/08/22 06:51:18;;;;;;;1.37;1.00;;;19.80;99.90;;;;;;5095271;28;20463;-82
2022/08/22 06:53:47;;;;;;;1.30;0.83;;;20.00;99.90;;;;;;5094921;28;20497;-82
2022/08/22 06:56:20;;;;;;;0.70;0.63;;;20.20;99.90;;;;;;5095248;28;20429;-82
2022/08/22 06:58:48;;;;;;;1.23;0.97;;;20.30;99.90;;;;;;5095162;28;20432;-82
2022/08/22 07:01:19;;;;;;;2.77;1.03;;;20.50;99.90;;;;;;5094892;28;20468;-82
2022/08/22 07:03:50;;;;;;;0.70;0.70;;;20.70;99.90;;;;;;5095067;28;20428;-81
2022/08/22 07:06:19;;;;;;;1.00;0.70;;;20.80;99.90;;;;;;5094960;28;20463;-82
2022/08/22 07:08:52;;;;;;;0.90;0.90;;;21.10;99.90;;;;;;5094895;28;20454;-82
2022/08/22 07:11:23;;;;;;;1.40;1.13;;;21.10;99.90;;;;;;5095310;28;20463;-82
2022/08/22 07:13:55;;;;;;;2.00;1.10;;;21.20;99.90;;;;;;5094866;28;20811;-82
2022/08/22 07:16:29;;;;;;;1.90;0.80;;;21.30;99.60;;;;;;5094890;28;20424;-82
2022/08/22 07:18:58;;;;;;;2.63;1.07;;;21.50;99.50;;;;;;5094787;28;20514;-82
2022/08/22 07:21:28;;;;;;;2.70;1.00;;;21.70;98.80;;;;;;5094635;28;20521;-82
2022/08/22 07:23:56;;;;;;;1.53;0.90;;;21.80;98.80;;;;;;5094399;28;20444;-82
2022/08/22 07:26:32;;;;;;;1.47;0.93;;;22.00;96.60;;;;;;5094573;28;20470;-82
2022/08/22 07:29:05;;;;;;;1.20;1.10;;;22.20;95.10;;;;;;5094577;28;20518;-82
2022/08/22 07:31:36;;;;;;;1.37;1.00;;;22.30;95.60;;;;;;5094543;28;20803;-82
2022/08/22 07:34:19;;;;;;;0.93;0.83;;;22.50;95.60;;;;;;5094611;28;20489;-82
2022/08/22 07:36:52;;;;;;;0.90;0.70;;;22.80;95.10;;;;;;5094237;28;20906;-81
2022/08/22 07:39:25;;;;;;;0.70;0.70;;;23.10;93.30;;;;;;5094419;28;20439;-82
2022/08/22 07:42:05;;;;;;;1.40;1.30;;;23.40;93.40;;;;;;5094290;28;20474;-82
2022/08/22 07:44:37;;;;;;;2.60;1.27;;;23.50;92.90;;;;;;5094263;28;20432;-82
2022/08/22 07:47:07;;;;;;;2.70;1.60;;;23.60;92.70;;;;;;5094319;28;20284;-82
2022/08/22 07:49:39;;;;;;;1.33;1.03;;;23.60;92.00;;;;;;5094245;28;20192;-81
2022/08/22 07:52:09;;;;;;;5.60;0.80;;;23.60;91.90;;;;;;5094129;28;20482;-81
2022/08/22 07:54:41;;;;;;;1.20;0.80;;;23.60;92.30;;;;;;5094104;28;20201;-81
2022/08/22 07:57:12;;;;;;;1.23;0.80;;;23.70;91.90;;;;;;5094093;28;20236;-81
2022/08/22 07:59:47;;;;;;;0.60;0.60;;;23.90;92.60;;;;;;5094100;28;20193;-81
2022/08/22 08:02:17;;;;;;;1.53;0.70;;;23.90;92.20;;;;;;5093653;28;20640;-82
2022/08/22 08:04:48;;;;;;;1.70;0.77;;;24.10;91.40;;;;;;5094117;28;20205;-81
2022/08/22 08:07:17;;;;;;;0.77;0.63;;;24.30;91.40;;;;;;5093705;28;20677;-81
2022/08/22 08:09:50;;;;;;;0.98;0.88;;;24.40;89.80;;;;;;5093834;28;20203;-82
2022/08/22 08:12:20;;;;;;;2.80;0.82;;;24.60;90.50;;;;;;5093293;28;20220;-81
2022/08/22 08:14:52;;;;;;;4.03;0.80;;;24.60;90.00;;;;;;5093538;28;20643;-81
2022/08/22 08:17:24;;;;;;;1.23;1.13;;;24.80;88.60;;;;;;5093510;28;20641;-81
2022/08/22 08:19:54;;;;;;;2.60;0.80;;;24.80;88.00;;;;;;5093786;28;20616;-81
2022/08/22 08:22:26;;;;;;;5.30;1.20;;;24.90;87.50;;;;;;5093586;28;20276;-81
2022/08/22 08:24:55;;;;;;;3.05;1.38;;;25.10;87.80;;;;;;5093234;28;20236;-81
2022/08/22 08:30:15;;;;;;;1.60;0.80;;;25.30;85.70;;;;;;5093709;28;20180;-81
2022/08/22 08:32:47;;;;;;;0.80;0.70;;;25.40;85.50;;;;;;5093624;28;20590;-81
2022/08/22 08:35:21;;;;;;;0.98;0.98;;;25.60;81.50;;;;;;5093837;28;20421;-81
2022/08/22 08:37:51;;;;;;;0.93;0.93;;;25.70;83.00;;;;;;5093526;28;20184;-81
2022/08/22 08:40:33;;;;;;;0.70;0.70;;;25.80;78.90;;;;;;5093233;28;20189;-81
2022/08/22 08:43:28;;;;;;;1.08;0.80;;;25.80;81.00;;;;;;5093255;28;20182;-81
2022/08/22 08:46:14;;;;;;;1.40;0.77;;;25.80;80.90;;;;;;5093421;28;20205;-81
2022/08/22 08:49:07;;;;;;;1.88;1.27;;;26.10;80.00;;;;;;5093477;28;20189;-81
2022/08/22 08:52:01;;;;;;;1.60;1.05;;;26.10;78.20;;;;;;5093102;28;20708;-81
2022/08/22 08:54:45;;;;;;;1.50;0.75;;;26.00;78.10;;;;;;5070476;28;20206;-81
2022/08/22 08:57:20;;;;;;;1.38;1.05;;;26.20;78.00;;;;;;5093392;28;20181;-81
2022/08/22 08:59:59;;;;;;;2.20;0.80;;;26.50;77.90;;;;;;5093055;28;20655;-81
2022/08/22 09:02:45;;;;;;;1.20;0.70;;;26.80;75.00;;;;;;5093283;28;20232;-81
2022/08/22 09:05:50;;;;;;;0.80;0.80;;;27.10;76.10;;;;;;5093234;28;20606;-81
2022/08/22 09:08:51;;;;;;;0.93;0.93;;;27.30;76.00;;;;;;5092982;28;20235;-81
2022/08/22 09:11:39;;;;;;;0.60;0.60;;;27.30;74.70;;;;;;5092885;28;20224;-81
2022/08/22 09:14:22;;;;;;;3.00;0.80;;;27.30;73.30;;;;;;5093179;28;20201;-81
2022/08/22 09:17:11;;;;;;;1.33;0.75;;;27.30;73.50;;;;;;5093240;28;20185;-82
2022/08/22 09:20:07;;;;;;;0.77;0.77;;;27.30;72.70;;;;;;5092862;28;20657;-81
2022/08/22 09:23:02;;;;;;;0.70;0.70;;;27.30;71.50;;;;;;5082418;28;20228;-81
2022/08/22 09:25:33;;;;;;;0.93;0.90;;;27.40;70.50;;;;;;5095762;28;20229;-81
2022/08/22 09:28:10;;;;;;;1.27;1.13;;;27.40;68.50;;;;;;5096977;28;20190;-81
2022/08/22 09:30:51;;;;;;;0.68;0.60;;;27.40;67.60;;;;;;5096844;28;20192;-81
2022/08/22 09:33:22;;;;;;;0.88;0.70;;;27.40;67.10;;;;;;5096572;28;20186;-82
2022/08/22 09:35:59;;;;;;;0.80;0.80;;;27.40;68.90;;;;;;5096778;28;20204;-81
2022/08/22 09:38:37;;;;;;;0.85;0.82;;;27.30;68.10;;;;;;5096757;28;20185;-81
2022/08/22 09:41:18;;;;;;;1.95;0.63;;;27.30;67.80;;;;;;5096679;28;20221;-81
2022/08/22 09:43:52;;;;;;;0.65;0.65;;;27.20;68.50;;;;;;5096682;28;20186;-84
2022/08/22 09:46:22;;;;;;;1.00;0.77;;;27.10;67.90;;;;;;5096542;28;20220;-82
2022/08/22 09:48:59;;;;;;;0.80;0.80;;;27.30;67.40;;;;;;5096618;28;20540;-82
2022/08/22 09:51:37;;;;;;;1.88;0.93;;;27.40;67.00;;;;;;5096507;28;20221;-82
2022/08/22 09:54:28;;;;;;;0.88;0.88;;;27.50;66.10;;;;;;5096489;28;20189;-82
2022/08/22 09:57:12;;;;;;;0.70;0.70;;;27.90;66.20;;;;;;5096165;28;20193;-81
2022/08/22 10:00:01;;;;;;;0.90;0.70;;;28.30;65.10;;;;;;5096345;28;20197;-82
2022/08/22 10:02:35;;;;;;;2.25;0.65;;;28.50;64.20;;;;;;5095920;28;20598;-82
2022/08/22 10:05:09;;;;;;;1.35;0.70;;;28.40;63.00;;;;;;5096752;28;20258;-81
2022/08/22 10:08:07;;;;;;;1.17;0.60;;;28.30;63.90;;;;;;5095842;28;20684;-81
2022/08/22 10:10:49;;;;;;;0.80;0.80;;;28.30;63.90;;;;;;5096073;28;20186;-81
2022/08/22 10:13:31;;;;;;;0.85;0.75;;;28.10;63.40;;;;;;5095809;28;20284;-82
2022/08/22 10:16:06;;;;;;;1.05;0.73;;;28.10;64.00;;;;;;5096137;28;20589;-83
2022/08/22 10:18:37;;;;;;;0.70;0.70;;;28.10;63.80;;;;;;5096081;28;20189;-82
2022/08/22 10:21:12;;;;;;;0.80;0.80;;;28.20;63.40;;;;;;5095636;28;20221;-82
2022/08/22 10:23:46;;;;;;;0.70;0.70;;;28.40;62.20;;;;;;5095716;28;20185;-83
2022/08/22 10:26:27;;;;;;;1.00;0.90;;;28.50;61.80;;;;;;5095825;28;20209;-82
2022/08/22 10:29:05;;;;;;;1.02;0.80;;;28.40;60.90;;;;;;5095524;28;20657;-82
2022/08/22 10:31:38;;;;;;;0.93;0.70;;;28.10;63.00;;;;;;5095735;28;20236;-82
2022/08/22 10:34:09;;;;;;;0.93;0.73;;;27.60;62.60;;;;;;5095739;28;20186;-82
2022/08/22 10:36:47;;;;;;;0.93;0.85;;;27.50;63.10;;;;;;5095279;28;20190;-82
2022/08/22 10:39:21;;;;;;;2.60;0.75;;;27.80;62.00;;;;;;5095653;28;20197;-82
2022/08/22 10:42:03;;;;;;;0.70;0.70;;;28.20;59.00;;;;;;5095428;28;20594;-82
2022/08/22 10:44:40;;;;;;;1.23;0.80;;;28.70;60.10;;;;;;5095505;28;20185;-82
2022/08/22 10:47:14;;;;;;;0.95;0.75;;;29.10;59.80;;;;;;5095410;28;20217;-82
2022/08/22 10:49:48;;;;;;;1.63;0.80;;;29.00;59.50;;;;;;5095466;28;20213;-82
2022/08/22 10:52:21;;;;;;;1.30;0.88;;;28.70;60.20;;;;;;5095335;28;20221;-82
2022/08/22 10:54:52;;;;;;;0.80;0.73;;;28.20;60.90;;;;;;5095323;28;20189;-82
2022/08/22 10:57:46;;;;;;;1.88;0.82;;;27.80;61.50;;;;;;5095264;28;20204;-82
2022/08/22 11:00:30;;;;;;;0.82;0.82;;;27.40;64.30;;;;;;5094869;28;20692;-82
2022/08/22 11:03:10;;;;;;;0.85;0.70;;;27.60;63.90;;;;;;5095013;28;20225;-82
2022/08/22 11:05:40;;;;;;;0.70;0.70;;;27.60;63.50;;;;;;5094994;28;20197;-82
2022/08/22 11:08:31;;;;;;;1.33;0.80;;;27.50;64.10;;;;;;5094726;28;20637;-82
2022/08/22 11:11:17;;;;;;;1.23;0.80;;;27.20;64.60;;;;;;5095887;28;20263;-83
2022/08/22 11:14:05;;;;;;;1.40;1.00;;;27.10;64.30;;;;;;5094943;28;20246;-81
2022/08/22 11:16:47;;;;;;;3.92;0.93;;;27.00;65.30;;;;;;5094904;28;20239;-82
2022/08/22 11:19:24;;;;;;;1.02;0.88;;;27.10;65.30;;;;;;5094823;28;20221;-82
2022/08/22 11:22:00;;;;;;;0.93;0.77;;;27.40;65.40;;;;;;5095296;28;20224;-82
2022/08/22 11:25:20;;;;;;;0.90;0.90;;;27.70;65.60;;;;;;5094161;28;20701;-81
2022/08/22 11:28:00;;;;;;;1.00;0.90;;;28.00;63.20;;;;;;5032202;28;20218;-86
2022/08/22 11:30:35;;;;;;;0.88;0.88;;;28.20;61.00;;;;;;5094684;28;20201;-82
2022/08/22 11:33:23;;;;;;;1.10;1.10;;;28.50;60.60;;;;;;5094587;28;20189;-82
2022/08/22 11:35:55;;;;;;;0.75;0.75;;;28.70;62.00;;;;;;5094216;28;20594;-81
2022/08/22 11:38:31;;;;;;;1.33;0.80;;;28.80;59.80;;;;;;5095355;28;20523;-81
2022/08/22 11:41:03;;;;;;;0.80;0.80;;;28.90;58.70;;;;;;5094344;28;20224;-81
2022/08/22 11:43:48;;;;;;;0.77;0.77;;;29.10;58.50;;;;;;5094063;28;20699;-82
2022/08/22 11:46:24;;;;;;;0.90;0.90;;;29.10;59.40;;;;;;5093712;28;20217;-82
2022/08/22 11:49:25;;;;;;;6.43;0.90;;;29.20;57.50;;;;;;5093917;28;20189;-81
2022/08/22 11:52:14;;;;;;;0.70;0.65;;;29.10;58.10;;;;;;5094141;28;20701;-82
2022/08/22 11:55:01;;;;;;;1.38;1.15;;;28.90;58.30;;;;;;5094089;28;20208;-82
2022/08/22 11:57:33;;;;;;;0.90;0.90;;;28.70;59.00;;;;;;5094095;28;20182;-81
2022/08/22 12:00:14;;;;;;;0.70;0.60;;;28.40;58.80;;;;;;5094054;28;20239;-82
2022/08/22 12:02:54;;;;;;;1.80;0.90;;;28.10;59.10;;;;;;5093959;28;20328;-82
2022/08/22 12:05:28;;;;;;;0.80;0.80;;;27.80;59.40;;;;;;5094412;28;20201;-90
2022/08/22 12:08:00;;;;;;;1.05;0.80;;;27.40;60.30;;;;;;5094963;28;20201;-90
2022/08/22 12:10:32;;;;;;;1.15;1.05;;;27.30;60.60;;;;;;5095051;28;20190;-90
2022/08/22 12:13:05;;;;;;;1.55;0.77;;;27.30;61.60;;;;;;5094939;28;20190;-91
2022/08/22 12:15:42;;;;;;;0.80;0.80;;;27.40;61.30;;;;;;5094792;28;20185;-90
2022/08/22 12:18:43;;;;;;;1.00;1.00;;;27.70;60.00;;;;;;5094424;28;20637;-91
2022/08/22 12:21:36;;;;;;;1.08;0.98;;;27.90;59.80;;;;;;5094478;28;20716;-91
2022/08/22 12:24:33;;;;;;;1.40;0.82;;;27.90;59.00;;;;;;5094209;28;20232;-90
2022/08/22 12:27:19;;;;;;;1.48;0.80;;;27.90;59.40;;;;;;5091961;28;20221;-91
2022/08/22 12:30:00;;;;;;;0.77;0.70;;;27.60;59.30;;;;;;5094815;28;20185;-91
2022/08/22 12:33:05;;;;;;;0.77;0.77;;;27.30;60.00;;;;;;5094573;28;20225;-91
2022/08/22 12:35:39;;;;;;;1.30;1.20;;;27.10;60.40;;;;;;5044000;28;20204;-91
2022/08/22 12:38:22;;;;;;;1.38;1.08;;;27.10;60.70;;;;;;5094525;28;20188;-91
2022/08/22 12:41:06;;;;;;;1.10;1.00;;;27.00;60.50;;;;;;5094597;28;20189;-91
2022/08/22 12:43:45;;;;;;;1.45;0.77;;;27.10;60.00;;;;;;5094457;28;20177;-91
2022/08/22 12:46:17;;;;;;;4.65;1.27;;;27.10;60.60;;;;;;5094068;28;20174;-92
2022/08/22 12:49:09;;;;;;;1.30;0.88;;;27.10;60.10;;;;;;5094598;28;20185;-91
2022/08/22 12:51:43;;;;;;;0.85;0.85;;;27.00;61.00;;;;;;5094149;28;20217;-91
2022/08/22 12:54:48;;;;;;;0.80;0.80;;;27.00;60.50;;;;;;5094432;28;20210;-91
2022/08/22 12:57:26;;;;;;;0.77;0.60;;;27.00;60.10;;;;;;5094510;28;20184;-91
2022/08/22 12:59:56;;;;;;;2.13;1.00;;;26.90;61.00;;;;;;5098469;28;20526;-92
2022/08/22 13:02:27;;;;;;;1.02;1.02;;;26.80;60.70;;;;;;5098739;28;20278;-91
2022/08/22 13:04:58;;;;;;;0.73;0.73;;;26.70;60.90;;;;;;5098471;28;20186;-91
2022/08/22 13:07:29;;;;;;;1.98;0.73;;;26.60;62.40;;;;;;5098398;28;20232;-90
2022/08/22 13:09:59;;;;;;;1.20;0.75;;;26.50;62.40;;;;;;5098369;28;20194;-91
2022/08/22 13:12:39;;;;;;;0.90;0.70;;;26.50;62.30;;;;;;5098074;28;20223;-91
2022/08/22 13:15:24;;;;;;;2.65;0.90;;;26.50;62.40;;;;;;5098440;28;20194;-91
2022/08/22 13:17:51;;;;;;;1.17;1.00;;;26.50;62.20;;;;;;5099056;28;20182;-90
2022/08/22 13:20:25;;;;;;;0.93;0.93;;;26.40;61.90;;;;;;5098168;28;20684;-91
2022/08/22 13:22:53;;;;;;;1.58;1.00;;;26.40;63.00;;;;;;5097648;28;20217;-89
2022/08/22 13:25:24;;;;;;;0.70;0.70;;;26.40;62.80;;;;;;5097894;28;20315;-91
2022/08/22 13:27:54;;;;;;;0.70;0.70;;;26.30;63.00;;;;;;5098866;28;20206;-90
2022/08/22 13:30:24;;;;;;;2.28;0.80;;;26.40;63.50;;;;;;5097893;28;20208;-91
2022/08/22 13:32:53;;;;;;;1.30;1.20;;;26.40;63.20;;;;;;5097866;28;20226;-91
2022/08/22 13:35:24;;;;;;;1.10;0.70;;;26.40;63.20;;;;;;5097949;28;20201;-91
2022/08/22 13:38:06;;;;;;;0.80;0.70;;;26.30;63.90;;;;;;5098127;28;20204;-91
2022/08/22 13:40:34;;;;;;;2.17;0.88;;;26.30;64.20;;;;;;5097591;28;20201;-91
2022/08/22 13:43:07;;;;;;;0.85;0.70;;;26.30;63.10;;;;;;5097734;28;20212;-90
2022/08/22 13:45:36;;;;;;;1.75;1.00;;;26.30;62.50;;;;;;5097775;28;20185;-91
2022/08/22 13:48:09;;;;;;;1.10;1.00;;;26.20;62.70;;;;;;5097403;28;20213;-91
2022/08/22 13:50:52;;;;;;;0.80;0.80;;;26.20;62.80;;;;;;5097674;28;20185;-91
2022/08/22 13:53:26;;;;;;;1.58;1.25;;;26.20;62.50;;;;;;5097527;28;20202;-91